Time,TemperatureF,DewpointF,PressureIn,WindDirection,WindDirectionDegrees,WindSpeedMPH,WindSpeedGustMPH,Humidity,HourlyPrecipIn,Conditions,Clouds,dailyrainin,SoftwareType,DateUTC
2013-12-25 00:05:00,28.1,12.3,30.34,North,351,11.0,13.0,51,0.00,,,0.00,Wunderground v.1.15,2013-12-25 05:05:00,
2013-12-25 00:10:00,28.0,13.5,30.34,NNW,328,12.0,12.0,54,0.00,,,0.00,Wunderground v.1.15,2013-12-25 05:10:00,
2013-12-25 00:15:00,27.8,12.4,30.34,NNW,328,12.0,12.0,52,0.00,,,0.00,Wunderground v.1.15,2013-12-25 05:15:00,
2013-12-25 00:20:00,27.6,13.1,30.34,NNW,345,10.0,10.0,54,0.00,,,0.00,Wunderground v.1.15,2013-12-25 05:20:00,
2013-12-25 00:25:00,27.4,13.3,30.35,NW,316,9.0,10.0,55,0.00,,,0.00,Wunderground v.1.15,2013-12-25 05:25:00,
2013-12-25 00:30:00,27.4,13.7,30.35,NW,322,9.0,9.0,56,0.00,,,0.00,Wunderground v.1.15,2013-12-25 05:30:00,
2013-12-25 00:35:00,27.2,14.0,30.35,NW,314,8.0,9.0,57,0.00,,,0.00,Wunderground v.1.15,2013-12-25 05:35:00,
2013-12-25 00:45:00,27.0,13.8,30.35,NW,309,9.0,9.0,57,0.00,,,0.00,Wunderground v.1.15,2013-12-25 05:45:00,
2013-12-25 00:50:00,26.9,13.7,30.35,NW,325,10.0,14.0,57,0.00,,,0.00,Wunderground v.1.15,2013-12-25 05:50:00,
2013-12-25 00:55:00,26.9,14.5,30.36,NW,319,9.0,14.0,59,0.00,,,0.00,Wunderground v.1.15,2013-12-25 05:55:00,
2013-12-25 01:00:00,26.8,14.0,30.36,NW,307,8.0,12.0,58,0.00,,,0.00,Wunderground v.1.15,2013-12-25 06:00:00,
2013-12-25 01:10:00,26.5,14.1,30.36,NW,312,8.0,8.0,59,0.00,,,0.00,Wunderground v.1.15,2013-12-25 06:10:00,
2013-12-25 01:15:00,26.4,14.4,30.36,NW,319,6.0,8.0,60,0.00,,,0.00,Wunderground v.1.15,2013-12-25 06:15:00,
2013-12-25 01:20:00,26.3,13.9,30.36,NW,308,5.0,9.0,59,0.00,,,0.00,Wunderground v.1.15,2013-12-25 06:20:00,
2013-12-25 01:30:00,26.2,14.2,30.37,NW,324,8.0,9.0,60,0.00,,,0.00,Wunderground v.1.15,2013-12-25 06:30:00,
2013-12-25 01:35:00,26.1,13.7,30.37,NW,309,9.0,11.0,59,0.00,,,0.00,Wunderground v.1.15,2013-12-25 06:35:00,
2013-12-25 01:40:00,26.1,13.7,30.37,NW,319,9.0,9.0,59,0.00,,,0.00,Wunderground v.1.15,2013-12-25 06:40:00,
2013-12-25 01:45:00,25.9,13.9,30.37,NW,321,7.0,9.0,60,0.00,,,0.00,Wunderground v.1.15,2013-12-25 06:45:00,
2013-12-25 01:55:00,25.7,13.3,30.37,NW,305,7.0,8.0,59,0.00,,,0.00,Wunderground v.1.15,2013-12-25 06:55:00,
2013-12-25 02:00:00,25.7,13.7,30.37,NW,326,9.0,16.0,60,0.00,,,0.00,Wunderground v.1.15,2013-12-25 07:00:00,
2013-12-25 02:05:00,25.6,12.9,30.37,NW,314,12.0,16.0,58,0.00,,,0.00,Wunderground v.1.15,2013-12-25 07:05:00,
2013-12-25 02:15:00,25.4,12.7,30.38,NW,319,10.0,11.0,58,0.00,,,0.00,Wunderground v.1.15,2013-12-25 07:15:00,
2013-12-25 02:20:00,25.4,13.1,30.38,NW,316,9.0,9.0,59,0.00,,,0.00,Wunderground v.1.15,2013-12-25 07:20:00,
2013-12-25 02:25:00,25.3,13.0,30.38,NW,324,9.0,9.0,59,0.00,,,0.00,Wunderground v.1.15,2013-12-25 07:25:00,
2013-12-25 02:30:00,25.2,12.9,30.38,NW,305,10.0,14.0,59,0.00,,,0.00,Wunderground v.1.15,2013-12-25 07:30:00,
2013-12-25 02:35:00,25.0,12.3,30.39,NW,316,11.0,14.0,58,0.00,,,0.00,Wunderground v.1.15,2013-12-25 07:35:00,
2013-12-25 02:40:00,25.0,12.7,30.39,North,4,12.0,12.0,59,0.00,,,0.00,Wunderground v.1.15,2013-12-25 07:40:00,
2013-12-25 02:45:00,24.8,11.7,30.40,NW,321,11.0,13.0,57,0.00,,,0.00,Wunderground v.1.15,2013-12-25 07:45:00,
2013-12-25 02:50:00,24.8,12.5,30.40,NNW,333,9.0,9.0,59,0.00,,,0.00,Wunderground v.1.15,2013-12-25 07:50:00,
2013-12-25 03:00:00,24.6,12.7,30.40,WNW,302,9.0,9.0,60,0.00,,,0.00,Wunderground v.1.15,2013-12-25 08:00:00,
2013-12-25 03:05:00,24.5,12.6,30.40,NW,312,9.0,9.0,60,0.00,,,0.00,Wunderground v.1.15,2013-12-25 08:05:00,
2013-12-25 03:10:00,24.3,12.4,30.40,NW,316,9.0,11.0,60,0.00,,,0.00,Wunderground v.1.15,2013-12-25 08:10:00,
2013-12-25 03:20:00,24.2,12.3,30.41,NNE,26,10.0,10.0,60,0.00,,,0.00,Wunderground v.1.15,2013-12-25 08:20:00,
2013-12-25 03:25:00,24.2,12.3,30.41,WNW,302,8.0,10.0,60,0.00,,,0.00,Wunderground v.1.15,2013-12-25 08:25:00,
2013-12-25 03:30:00,23.9,11.6,30.40,NW,321,8.0,10.0,59,0.00,,,0.00,Wunderground v.1.15,2013-12-25 08:30:00,
2013-12-25 03:35:00,23.8,11.9,30.40,NNW,335,9.0,10.0,60,0.00,,,0.00,Wunderground v.1.15,2013-12-25 08:35:00,
2013-12-25 03:45:00,23.5,11.3,30.40,NW,308,9.0,14.0,59,0.00,,,0.00,Wunderground v.1.15,2013-12-25 08:45:00,
2013-12-25 03:50:00,23.4,10.8,30.40,NNW,342,10.0,14.0,58,0.00,,,0.00,Wunderground v.1.15,2013-12-25 08:50:00,
2013-12-25 03:55:00,23.3,10.3,30.41,NW,312,10.0,14.0,57,0.00,,,0.00,Wunderground v.1.15,2013-12-25 08:55:00,
2013-12-25 04:05:00,23.2,11.0,30.42,NW,305,8.0,12.0,59,0.00,,,0.00,Wunderground v.1.15,2013-12-25 09:05:00,
2013-12-25 04:10:00,23.0,10.0,30.41,NW,319,9.0,10.0,57,0.00,,,0.00,Wunderground v.1.15,2013-12-25 09:10:00,
2013-12-25 04:15:00,22.9,9.9,30.41,NW,314,10.0,10.0,57,0.00,,,0.00,Wunderground v.1.15,2013-12-25 09:15:00,
2013-12-25 04:25:00,22.7,9.7,30.42,WNW,302,10.0,10.0,57,0.00,,,0.00,Wunderground v.1.15,2013-12-25 09:25:00,
2013-12-25 04:30:00,22.6,10.0,30.42,NNW,340,10.0,10.0,58,0.00,,,0.00,Wunderground v.1.15,2013-12-25 09:30:00,
2013-12-25 04:35:00,22.6,10.4,30.42,NNW,333,9.0,12.0,59,0.00,,,0.00,Wunderground v.1.15,2013-12-25 09:35:00,
2013-12-25 04:40:00,22.5,9.9,30.42,NW,315,10.0,10.0,58,0.00,,,0.00,Wunderground v.1.15,2013-12-25 09:40:00,
2013-12-25 04:50:00,22.3,10.1,30.42,NW,319,7.0,7.0,59,0.00,,,0.00,Wunderground v.1.15,2013-12-25 09:50:00,
2013-12-25 04:55:00,22.2,10.0,30.43,NW,324,7.0,10.0,59,0.00,,,0.00,Wunderground v.1.15,2013-12-25 09:55:00,
2013-12-25 05:00:00,22.1,9.9,30.43,WNW,300,7.0,7.0,59,0.00,,,0.00,Wunderground v.1.15,2013-12-25 10:00:00,
2013-12-25 05:10:00,21.9,10.1,30.42,NNW,342,9.0,15.0,60,0.00,,,0.00,Wunderground v.1.15,2013-12-25 10:10:00,
2013-12-25 05:15:00,21.8,9.7,30.43,NW,322,9.0,15.0,59,0.00,,,0.00,Wunderground v.1.15,2013-12-25 10:15:00,
2013-12-25 05:20:00,21.8,10.4,30.43,NW,319,8.0,8.0,61,0.00,,,0.00,Wunderground v.1.15,2013-12-25 10:20:00,
2013-12-25 05:25:00,21.6,9.8,30.44,NW,311,7.0,8.0,60,0.00,,,0.00,Wunderground v.1.15,2013-12-25 10:25:00,
2013-12-25 05:35:00,21.5,9.7,30.44,NNW,328,6.0,7.0,60,0.00,,,0.00,Wunderground v.1.15,2013-12-25 10:35:00,
2013-12-25 05:40:00,21.4,9.7,30.44,NW,316,7.0,7.0,60,0.00,,,0.00,Wunderground v.1.15,2013-12-25 10:40:00,
2013-12-25 05:45:00,21.3,9.6,30.44,WNW,294,7.0,7.0,60,0.00,,,0.00,Wunderground v.1.15,2013-12-25 10:45:00,
2013-12-25 05:55:00,21.2,9.8,30.45,NW,308,6.0,6.0,61,0.00,,,0.00,Wunderground v.1.15,2013-12-25 10:55:00,
2013-12-25 06:00:00,21.1,9.7,30.45,WNW,293,5.0,6.0,61,0.00,,,0.00,Wunderground v.1.15,2013-12-25 11:00:00,
2013-12-25 06:05:00,21.0,9.6,30.45,NW,314,4.0,12.0,61,0.00,,,0.00,Wunderground v.1.15,2013-12-25 11:05:00,
2013-12-25 06:10:00,20.9,9.5,30.44,NW,310,6.0,7.0,61,0.00,,,0.00,Wunderground v.1.15,2013-12-25 11:10:00,
2013-12-25 06:20:00,20.8,9.5,30.44,NNW,328,8.0,8.0,61,0.00,,,0.00,Wunderground v.1.15,2013-12-25 11:20:00,
2013-12-25 06:25:00,20.9,10.3,30.45,NNE,18,8.0,8.0,63,0.00,,,0.00,Wunderground v.1.15,2013-12-25 11:25:00,
2013-12-25 06:30:00,20.9,10.6,30.45,NW,314,6.0,6.0,64,0.00,,,0.00,Wunderground v.1.15,2013-12-25 11:30:00,
2013-12-25 06:35:00,20.7,9.7,30.44,NNW,337,7.0,9.0,62,0.00,,,0.00,Wunderground v.1.15,2013-12-25 11:35:00,
2013-12-25 06:45:00,20.6,10.0,30.46,NW,326,8.0,8.0,63,0.00,,,0.00,Wunderground v.1.15,2013-12-25 11:45:00,
2013-12-25 06:50:00,20.5,9.5,30.46,NW,311,7.0,7.0,62,0.00,,,0.00,Wunderground v.1.15,2013-12-25 11:50:00,
2013-12-25 06:55:00,20.3,9.3,30.46,NNW,337,7.0,7.0,62,0.00,,,0.00,Wunderground v.1.15,2013-12-25 11:55:00,
2013-12-25 07:05:00,20.3,9.7,30.46,NNW,339,6.0,9.0,63,0.00,,,0.00,Wunderground v.1.15,2013-12-25 12:05:00,
2013-12-25 07:10:00,20.2,9.2,30.47,NW,315,7.0,7.0,62,0.00,,,0.00,Wunderground v.1.15,2013-12-25 12:10:00,
2013-12-25 07:15:00,20.3,10.1,30.48,NNW,333,6.0,7.0,64,0.00,,,0.00,Wunderground v.1.15,2013-12-25 12:15:00,
2013-12-25 07:20:00,20.1,9.9,30.47,NW,322,6.0,6.0,64,0.00,,,0.00,Wunderground v.1.15,2013-12-25 12:20:00,
2013-12-25 07:30:00,20.1,9.9,30.49,NNW,329,4.0,4.0,64,0.00,,,0.00,Wunderground v.1.15,2013-12-25 12:30:00,
2013-12-25 07:35:00,20.1,9.9,30.48,NNW,338,4.0,7.0,64,0.00,,,0.00,Wunderground v.1.15,2013-12-25 12:35:00,
2013-12-25 07:40:00,20.1,10.2,30.48,NNW,330,6.0,6.0,65,0.00,,,0.00,Wunderground v.1.15,2013-12-25 12:40:00,
2013-12-25 07:50:00,20.4,10.1,30.49,NW,319,5.0,5.0,64,0.00,,,0.00,Wunderground v.1.15,2013-12-25 12:50:00,
2013-12-25 07:55:00,20.4,10.5,30.49,NW,312,5.0,5.0,65,0.00,,,0.00,Wunderground v.1.15,2013-12-25 12:55:00,
2013-12-25 08:00:00,20.3,10.4,30.49,NW,324,6.0,6.0,65,0.00,,,0.00,Wunderground v.1.15,2013-12-25 13:00:00,
2013-12-25 08:10:00,20.4,10.1,30.50,NNW,338,6.0,6.0,64,0.00,,,0.00,Wunderground v.1.15,2013-12-25 13:10:00,
2013-12-25 08:15:00,20.6,10.3,30.50,NW,319,5.0,7.0,64,0.00,,,0.00,Wunderground v.1.15,2013-12-25 13:15:00,
2013-12-25 08:20:00,20.6,10.7,30.50,NNW,328,6.0,6.0,65,0.00,,,0.00,Wunderground v.1.15,2013-12-25 13:20:00,
2013-12-25 08:25:00,20.8,11.2,30.50,NW,316,5.0,6.0,66,0.00,,,0.00,Wunderground v.1.15,2013-12-25 13:25:00,
2013-12-25 08:35:00,20.7,10.4,30.50,NW,314,6.0,9.0,64,0.00,,,0.00,Wunderground v.1.15,2013-12-25 13:35:00,
2013-12-25 08:40:00,20.9,10.6,30.50,NW,310,8.0,10.0,64,0.00,,,0.00,Wunderground v.1.15,2013-12-25 13:40:00,
2013-12-25 08:45:00,20.9,11.3,30.51,NNW,335,8.0,10.0,66,0.00,,,0.00,Wunderground v.1.15,2013-12-25 13:45:00,
2013-12-25 08:55:00,21.0,10.4,30.51,NW,325,8.0,8.0,63,0.00,,,0.00,Wunderground v.1.15,2013-12-25 13:55:00,
2013-12-25 09:00:00,21.2,10.9,30.51,NW,318,8.0,8.0,64,0.00,,,0.00,Wunderground v.1.15,2013-12-25 14:00:00,
2013-12-25 09:05:00,21.3,10.7,30.51,NNW,330,8.0,11.0,63,0.00,,,0.00,Wunderground v.1.15,2013-12-25 14:05:00,
2013-12-25 09:10:00,21.3,10.7,30.50,WNW,300,8.0,8.0,63,0.00,,,0.00,Wunderground v.1.15,2013-12-25 14:10:00,
2013-12-25 09:20:00,21.7,11.4,30.50,NNE,18,7.0,7.0,64,0.00,,,0.00,Wunderground v.1.15,2013-12-25 14:20:00,
2013-12-25 09:25:00,21.8,11.8,30.50,NW,325,8.0,10.0,65,0.00,,,0.00,Wunderground v.1.15,2013-12-25 14:25:00,
2013-12-25 09:30:00,22.0,12.0,30.50,NNW,347,7.0,9.0,65,0.00,,,0.00,Wunderground v.1.15,2013-12-25 14:30:00,
2013-12-25 09:35:00,22.0,12.0,30.49,NW,325,7.0,10.0,65,0.00,,,0.00,Wunderground v.1.15,2013-12-25 14:35:00,
2013-12-25 09:45:00,22.7,12.3,30.50,NNW,336,7.0,8.0,64,0.00,,,0.00,Wunderground v.1.15,2013-12-25 14:45:00,
2013-12-25 09:50:00,22.5,11.1,30.50,NW,326,7.0,7.0,61,0.00,,,0.00,Wunderground v.1.15,2013-12-25 14:50:00,
2013-12-25 09:55:00,22.7,12.0,30.51,NW,319,6.0,7.0,63,0.00,,,0.00,Wunderground v.1.15,2013-12-25 14:55:00,
2013-12-25 10:05:00,23.1,11.6,30.51,North,349,7.0,9.0,61,0.00,,,0.00,Wunderground v.1.15,2013-12-25 15:05:00,
2013-12-25 10:10:00,23.1,12.0,30.51,NW,325,7.0,7.0,62,0.00,,,0.00,Wunderground v.1.15,2013-12-25 15:10:00,
2013-12-25 10:15:00,23.2,11.7,30.51,North,351,6.0,8.0,61,0.00,,,0.00,Wunderground v.1.15,2013-12-25 15:15:00,
2013-12-25 10:25:00,23.5,12.4,30.50,North,351,5.0,6.0,62,0.00,,,0.00,Wunderground v.1.15,2013-12-25 15:25:00,
2013-12-25 10:30:00,23.5,12.0,30.50,NW,325,5.0,5.0,61,0.00,,,0.00,Wunderground v.1.15,2013-12-25 15:30:00,
2013-12-25 10:35:00,23.7,11.1,30.51,NNW,330,5.0,5.0,58,0.00,,,0.00,Wunderground v.1.15,2013-12-25 15:35:00,
2013-12-25 10:45:00,24.1,11.4,30.50,NW,321,5.0,5.0,58,0.00,,,0.00,Wunderground v.1.15,2013-12-25 15:45:00,
2013-12-25 10:50:00,24.0,12.1,30.50,NW,308,5.0,5.0,60,0.00,,,0.00,Wunderground v.1.15,2013-12-25 15:50:00,
2013-12-25 10:55:00,24.0,11.3,30.50,NNW,328,4.0,5.0,58,0.00,,,0.00,Wunderground v.1.15,2013-12-25 15:55:00,
2013-12-25 11:00:00,24.1,11.8,30.50,NNE,22,4.0,4.0,59,0.00,,,0.00,Wunderground v.1.15,2013-12-25 16:00:00,
2013-12-25 11:10:00,24.1,11.4,30.50,NNW,341,5.0,5.0,58,0.00,,,0.00,Wunderground v.1.15,2013-12-25 16:10:00,
2013-12-25 11:15:00,24.3,11.6,30.50,WNW,285,5.0,5.0,58,0.00,,,0.00,Wunderground v.1.15,2013-12-25 16:15:00,
2013-12-25 11:20:00,24.4,10.5,30.51,WNW,300,3.0,4.0,55,0.00,,,0.00,Wunderground v.1.15,2013-12-25 16:20:00,
2013-12-25 11:30:00,25.0,11.1,30.49,WNW,300,4.0,4.0,55,0.00,,,0.00,Wunderground v.1.15,2013-12-25 16:30:00,
2013-12-25 11:35:00,25.3,13.0,30.49,WNW,297,3.0,5.0,59,0.00,,,0.00,Wunderground v.1.15,2013-12-25 16:35:00,
2013-12-25 11:40:00,25.4,11.5,30.50,NW,321,3.0,3.0,55,0.00,,,0.00,Wunderground v.1.15,2013-12-25 16:40:00,
2013-12-25 11:50:00,26.0,12.4,30.50,NNE,33,3.0,6.0,56,0.00,,,0.00,Wunderground v.1.15,2013-12-25 16:50:00,
2013-12-25 11:55:00,26.2,12.2,30.49,North,353,4.0,6.0,55,0.00,,,0.00,Wunderground v.1.15,2013-12-25 16:55:00,
2013-12-25 12:00:00,26.1,11.3,30.48,NE,46,4.0,4.0,53,0.00,,,0.00,Wunderground v.1.15,2013-12-25 17:00:00,
2013-12-25 12:05:00,26.0,11.6,30.49,NNE,33,4.0,4.0,54,0.00,,,0.00,Wunderground v.1.15,2013-12-25 17:05:00,
2013-12-25 12:15:00,26.2,13.0,30.47,NNW,335,5.0,7.0,57,0.00,,,0.00,Wunderground v.1.15,2013-12-25 17:15:00,
2013-12-25 12:20:00,26.3,11.9,30.47,NW,309,4.0,4.0,54,0.00,,,0.00,Wunderground v.1.15,2013-12-25 17:20:00,
2013-12-25 12:25:00,26.3,11.5,30.48,North,9,2.0,6.0,53,0.00,,,0.00,Wunderground v.1.15,2013-12-25 17:25:00,
2013-12-25 12:35:00,26.3,10.6,30.48,NW,320,3.0,3.0,51,0.00,,,0.00,Wunderground v.1.15,2013-12-25 17:35:00,
2013-12-25 12:40:00,26.6,11.7,30.48,North,360,2.0,3.0,53,0.00,,,0.00,Wunderground v.1.15,2013-12-25 17:40:00,
2013-12-25 12:45:00,26.6,10.4,30.47,WNW,294,2.0,3.0,50,0.00,,,0.00,Wunderground v.1.15,2013-12-25 17:45:00,
2013-12-25 12:50:00,26.8,11.1,30.47,North,355,3.0,4.0,51,0.00,,,0.00,Wunderground v.1.15,2013-12-25 17:50:00,
2013-12-25 13:00:00,27.0,12.5,30.47,NNE,13,5.0,5.0,54,0.00,,,0.00,Wunderground v.1.15,2013-12-25 18:00:00,
2013-12-25 13:05:00,27.3,12.4,30.47,NNW,330,5.0,5.0,53,0.00,,,0.00,Wunderground v.1.15,2013-12-25 18:05:00,
2013-12-25 13:10:00,27.4,12.5,30.47,NW,315,4.0,4.0,53,0.00,,,0.00,Wunderground v.1.15,2013-12-25 18:10:00,
2013-12-25 13:15:00,27.5,12.2,30.47,NNE,12,3.0,4.0,52,0.00,,,0.00,Wunderground v.1.15,2013-12-25 18:15:00,
2013-12-25 13:25:00,27.4,11.2,30.47,WNW,290,3.0,4.0,50,0.00,,,0.00,Wunderground v.1.15,2013-12-25 18:25:00,
2013-12-25 13:30:00,27.8,11.5,30.47,West,281,3.0,3.0,50,0.00,,,0.00,Wunderground v.1.15,2013-12-25 18:30:00,
2013-12-25 13:40:00,28.6,11.8,30.47,West,262,2.0,3.0,49,0.00,,,0.00,Wunderground v.1.15,2013-12-25 18:40:00,
2013-12-25 13:45:00,29.3,12.5,30.47,SW,229,2.0,3.0,49,0.00,,,0.00,Wunderground v.1.15,2013-12-25 18:45:00,
2013-12-25 13:50:00,29.6,12.3,30.47,NNE,25,1.0,2.0,48,0.00,,,0.00,Wunderground v.1.15,2013-12-25 18:50:00,
2013-12-25 13:55:00,29.0,10.8,30.47,NE,46,2.0,2.0,46,0.00,,,0.00,Wunderground v.1.15,2013-12-25 18:55:00,
2013-12-25 14:05:00,28.8,11.1,30.47,East,79,2.0,3.0,47,0.00,,,0.00,Wunderground v.1.15,2013-12-25 19:05:00,
2013-12-25 14:10:00,28.9,11.6,30.47,SSW,213,1.0,2.0,48,0.00,,,0.00,Wunderground v.1.15,2013-12-25 19:10:00,
2013-12-25 14:15:00,29.5,11.2,30.47,SSE,158,2.0,2.0,46,0.00,,,0.00,Wunderground v.1.15,2013-12-25 19:15:00,
2013-12-25 14:25:00,29.9,11.6,30.47,WNW,300,1.0,2.0,46,0.00,,,0.00,Wunderground v.1.15,2013-12-25 19:25:00,
2013-12-25 14:30:00,29.8,12.0,30.47,SE,137,1.0,2.0,47,0.00,,,0.00,Wunderground v.1.15,2013-12-25 19:30:00,
2013-12-25 14:35:00,29.3,12.0,30.47,ESE,103,2.0,2.0,48,0.00,,,0.00,Wunderground v.1.15,2013-12-25 19:35:00,
2013-12-25 14:40:00,29.1,11.4,30.47,East,88,3.0,3.0,47,0.00,,,0.00,Wunderground v.1.15,2013-12-25 19:40:00,
2013-12-25 14:50:00,29.0,14.0,30.47,ESE,111,3.0,5.0,53,0.00,,,0.00,Wunderground v.1.15,2013-12-25 19:50:00,
2013-12-25 14:55:00,29.0,13.1,30.47,ENE,77,3.0,5.0,51,0.00,,,0.00,Wunderground v.1.15,2013-12-25 19:55:00,
2013-12-25 15:00:00,28.8,12.9,30.47,East,99,4.0,5.0,51,0.00,,,0.00,Wunderground v.1.15,2013-12-25 20:00:00,
2013-12-25 15:05:00,28.7,13.3,30.47,East,81,4.0,5.0,52,0.00,,,0.00,Wunderground v.1.15,2013-12-25 20:05:00,
2013-12-25 15:15:00,28.7,13.3,30.48,ESE,117,3.0,4.0,52,0.00,,,0.00,Wunderground v.1.15,2013-12-25 20:15:00,
2013-12-25 15:20:00,28.7,13.7,30.48,SE,126,3.0,3.0,53,0.00,,,0.00,Wunderground v.1.15,2013-12-25 20:20:00,
2013-12-25 15:30:00,28.5,13.9,30.48,ESE,111,4.0,5.0,54,0.00,,,0.00,Wunderground v.1.15,2013-12-25 20:30:00,
2013-12-25 15:35:00,28.5,13.1,30.48,East,95,4.0,7.0,52,0.00,,,0.00,Wunderground v.1.15,2013-12-25 20:35:00,
2013-12-25 15:40:00,28.5,14.4,30.49,SSE,160,4.0,4.0,55,0.00,,,0.00,Wunderground v.1.15,2013-12-25 20:40:00,
2013-12-25 15:45:00,28.6,14.5,30.49,ESE,111,4.0,5.0,55,0.00,,,0.00,Wunderground v.1.15,2013-12-25 20:45:00,
2013-12-25 15:55:00,28.5,13.5,30.49,SE,126,2.0,4.0,53,0.00,,,0.00,Wunderground v.1.15,2013-12-25 20:55:00,
2013-12-25 16:00:00,28.4,13.9,30.49,East,81,2.0,2.0,54,0.00,,,0.00,Wunderground v.1.15,2013-12-25 21:00:00,
2013-12-25 16:05:00,28.3,14.2,30.48,ESE,105,2.0,4.0,55,0.00,,,0.00,Wunderground v.1.15,2013-12-25 21:05:00,
2013-12-25 16:15:00,28.2,14.5,30.49,East,84,3.0,3.0,56,0.00,,,0.00,Wunderground v.1.15,2013-12-25 21:15:00,
2013-12-25 16:20:00,28.3,14.6,30.48,ESE,109,2.0,3.0,56,0.00,,,0.00,Wunderground v.1.15,2013-12-25 21:20:00,
2013-12-25 16:25:00,28.1,14.8,30.48,SE,136,2.0,3.0,57,0.00,,,0.00,Wunderground v.1.15,2013-12-25 21:25:00,
2013-12-25 16:30:00,28.0,14.7,30.48,SE,125,3.0,3.0,57,0.00,,,0.00,Wunderground v.1.15,2013-12-25 21:30:00,
2013-12-25 16:40:00,27.7,14.8,30.49,SSE,149,1.0,1.0,58,0.00,,,0.00,Wunderground v.1.15,2013-12-25 21:40:00,
2013-12-25 16:45:00,27.7,15.2,30.49,SE,137,1.0,2.0,59,0.00,,,0.00,Wunderground v.1.15,2013-12-25 21:45:00,
2013-12-25 16:50:00,27.7,15.6,30.49,SSE,158,2.0,2.0,60,0.00,,,0.00,Wunderground v.1.15,2013-12-25 21:50:00,
2013-12-25 16:55:00,27.6,15.5,30.49,SE,132,2.0,2.0,60,0.00,,,0.00,Wunderground v.1.15,2013-12-25 21:55:00,
2013-12-25 17:05:00,27.4,14.9,30.48,SE,133,0.0,1.0,59,0.00,,,0.00,Wunderground v.1.15,2013-12-25 22:05:00,
2013-12-25 17:10:00,27.4,15.3,30.49,SE,126,0.0,2.0,60,0.00,,,0.00,Wunderground v.1.15,2013-12-25 22:10:00,
2013-12-25 17:15:00,27.6,17.0,30.49,SE,125,1.0,2.0,64,0.00,,,0.00,Wunderground v.1.15,2013-12-25 22:15:00,
2013-12-25 17:25:00,27.7,16.0,30.49,SE,139,1.0,1.0,61,0.00,,,0.00,Wunderground v.1.15,2013-12-25 22:25:00,
2013-12-25 17:30:00,27.8,16.5,30.49,SE,125,1.0,2.0,62,0.00,,,0.00,Wunderground v.1.15,2013-12-25 22:30:00,
2013-12-25 17:35:00,27.9,16.2,30.49,SE,139,1.0,2.0,61,0.00,,,0.00,Wunderground v.1.15,2013-12-25 22:35:00,
2013-12-25 17:45:00,28.0,15.9,30.49,ESE,120,1.0,2.0,60,0.00,,,0.00,Wunderground v.1.15,2013-12-25 22:45:00,
2013-12-25 17:50:00,28.1,16.4,30.49,SE,139,2.0,2.0,61,0.00,,,0.00,Wunderground v.1.15,2013-12-25 22:50:00,
2013-12-25 17:55:00,28.1,16.4,30.48,SE,129,1.0,2.0,61,0.00,,,0.00,Wunderground v.1.15,2013-12-25 22:55:00,
2013-12-25 18:05:00,28.2,16.8,30.48,ESE,117,3.0,4.0,62,0.00,,,0.00,Wunderground v.1.15,2013-12-25 23:05:00,
2013-12-25 18:10:00,28.3,16.9,30.49,ESE,117,2.0,2.0,62,0.00,,,0.00,Wunderground v.1.15,2013-12-25 23:10:00,
2013-12-25 18:15:00,28.3,16.9,30.49,SE,135,2.0,2.0,62,0.00,,,0.00,Wunderground v.1.15,2013-12-25 23:15:00,
2013-12-25 18:20:00,28.4,17.0,30.49,SSE,150,3.0,3.0,62,0.00,,,0.00,Wunderground v.1.15,2013-12-25 23:20:00,
2013-12-25 18:30:00,28.6,16.8,30.49,SE,127,2.0,2.0,61,0.00,,,0.00,Wunderground v.1.15,2013-12-25 23:30:00,
2013-12-25 18:35:00,28.6,16.8,30.49,SE,139,2.0,2.0,61,0.00,,,0.00,Wunderground v.1.15,2013-12-25 23:35:00,
2013-12-25 18:40:00,28.6,17.6,30.49,South,184,2.0,2.0,63,0.00,,,0.00,Wunderground v.1.15,2013-12-25 23:40:00,
2013-12-25 18:45:00,28.7,17.7,30.49,SE,129,2.0,2.0,63,0.00,,,0.00,Wunderground v.1.15,2013-12-25 23:45:00,
2013-12-25 18:55:00,28.8,17.8,30.49,SE,136,3.0,4.0,63,0.00,,,0.00,Wunderground v.1.15,2013-12-25 23:55:00,
2013-12-25 19:00:00,28.9,18.6,30.49,SSE,158,3.0,3.0,65,0.00,,,0.00,Wunderground v.1.15,2013-12-26 00:00:00,
2013-12-25 19:05:00,29.0,18.3,30.49,South,169,3.0,3.0,64,0.00,,,0.00,Wunderground v.1.15,2013-12-26 00:05:00,
2013-12-25 19:15:00,29.0,18.0,30.49,SSE,155,2.0,3.0,63,0.00,,,0.00,Wunderground v.1.15,2013-12-26 00:15:00,
2013-12-25 19:20:00,29.0,18.3,30.49,South,170,3.0,3.0,64,0.00,,,0.00,Wunderground v.1.15,2013-12-26 00:20:00,
2013-12-25 19:25:00,29.1,19.2,30.48,SE,143,3.0,4.0,66,0.00,,,0.00,Wunderground v.1.15,2013-12-26 00:25:00,
2013-12-25 19:30:00,29.2,18.9,30.48,SSE,148,4.0,4.0,65,0.00,,,0.00,Wunderground v.1.15,2013-12-26 00:30:00,
2013-12-25 19:40:00,29.3,20.0,30.48,SSE,151,4.0,4.0,68,0.00,,,0.00,Wunderground v.1.15,2013-12-26 00:40:00,
2013-12-25 19:45:00,29.4,19.8,30.48,SSE,163,4.0,4.0,67,0.00,,,0.00,Wunderground v.1.15,2013-12-26 00:45:00,
2013-12-25 19:55:00,29.4,19.8,30.48,South,174,3.0,4.0,67,0.00,,,0.00,Wunderground v.1.15,2013-12-26 00:55:00,
2013-12-25 20:00:00,29.4,19.8,30.48,SW,232,3.0,7.0,67,0.00,,,0.00,Wunderground v.1.15,2013-12-26 01:00:00,
2013-12-25 20:05:00,29.4,20.1,30.48,SSE,148,3.0,7.0,68,0.00,,,0.00,Wunderground v.1.15,2013-12-26 01:05:00,
2013-12-25 20:10:00,29.6,21.0,30.48,SE,142,4.0,6.0,70,0.00,,,0.00,Wunderground v.1.15,2013-12-26 01:10:00,
2013-12-25 20:20:00,29.7,20.8,30.47,SSE,163,3.0,5.0,69,0.00,,,0.00,Wunderground v.1.15,2013-12-26 01:20:00,
2013-12-25 20:25:00,29.7,20.8,30.47,South,179,3.0,5.0,69,0.00,,,0.00,Wunderground v.1.15,2013-12-26 01:25:00,
2013-12-25 20:30:00,29.7,20.4,30.47,SSW,198,3.0,4.0,68,0.00,,,0.00,Wunderground v.1.15,2013-12-26 01:30:00,
2013-12-25 20:35:00,29.7,20.8,30.47,SW,234,2.0,4.0,69,0.00,,,0.00,Wunderground v.1.15,2013-12-26 01:35:00,
2013-12-25 20:45:00,29.7,21.1,30.47,SSW,193,1.0,1.0,70,0.00,,,0.00,Wunderground v.1.15,2013-12-26 01:45:00,
2013-12-25 20:50:00,29.7,21.4,30.47,South,186,1.0,1.0,71,0.00,,,0.00,Wunderground v.1.15,2013-12-26 01:50:00,
2013-12-25 20:55:00,29.8,21.2,30.47,SSE,160,2.0,2.0,70,0.00,,,0.00,Wunderground v.1.15,2013-12-26 01:55:00,
2013-12-25 21:05:00,30.0,21.4,30.47,WSW,253,2.0,2.0,70,0.00,,,0.00,Wunderground v.1.15,2013-12-26 02:05:00,
2013-12-25 21:10:00,30.1,21.5,30.47,SSW,193,2.0,2.0,70,0.00,,,0.00,Wunderground v.1.15,2013-12-26 02:10:00,
2013-12-25 21:15:00,30.1,21.5,30.46,South,174,2.0,3.0,70,0.00,,,0.00,Wunderground v.1.15,2013-12-26 02:15:00,
2013-12-25 21:20:00,30.2,21.6,30.46,South,191,2.0,3.0,70,0.00,,,0.00,Wunderground v.1.15,2013-12-26 02:20:00,
2013-12-25 21:30:00,30.2,21.9,30.46,SSE,163,2.0,2.0,71,0.00,,,0.00,Wunderground v.1.15,2013-12-26 02:30:00,
2013-12-25 21:35:00,30.2,22.3,30.46,WSW,244,2.0,2.0,72,0.00,,,0.00,Wunderground v.1.15,2013-12-26 02:35:00,
2013-12-25 21:40:00,30.2,22.3,30.46,WSW,255,1.0,3.0,72,0.00,,,0.00,Wunderground v.1.15,2013-12-26 02:40:00,
2013-12-25 21:50:00,30.2,21.9,30.45,South,177,1.0,1.0,71,0.00,,,0.00,Wunderground v.1.15,2013-12-26 02:50:00,
2013-12-25 21:55:00,30.2,21.9,30.45,South,185,1.0,2.0,71,0.00,,,0.00,Wunderground v.1.15,2013-12-26 02:55:00,
2013-12-25 22:00:00,30.4,22.1,30.45,SW,221,1.0,1.0,71,0.00,,,0.00,Wunderground v.1.15,2013-12-26 03:00:00,
2013-12-25 22:10:00,30.4,22.1,30.45,WNW,294,1.0,1.0,71,0.00,,,0.00,Wunderground v.1.15,2013-12-26 03:10:00,
2013-12-25 22:15:00,30.0,21.7,30.45,WNW,284,1.0,1.0,71,0.00,,,0.00,Wunderground v.1.15,2013-12-26 03:15:00,
2013-12-25 22:20:00,29.8,21.2,30.45,WNW,291,1.0,1.0,70,0.00,,,0.00,Wunderground v.1.15,2013-12-26 03:20:00,
2013-12-25 22:30:00,29.4,20.8,30.45,West,277,1.0,1.0,70,0.00,,,0.00,Wunderground v.1.15,2013-12-26 03:30:00,
2013-12-25 22:35:00,29.3,20.7,30.44,West,281,1.0,1.0,70,0.00,,,0.00,Wunderground v.1.15,2013-12-26 03:35:00,
2013-12-25 22:40:00,29.3,21.1,30.44,WNW,288,1.0,1.0,71,0.00,,,0.00,Wunderground v.1.15,2013-12-26 03:40:00,
2013-12-25 22:50:00,29.2,21.0,30.43,WNW,288,0.0,0.0,71,0.00,,,0.00,Wunderground v.1.15,2013-12-26 03:50:00,
2013-12-25 22:55:00,29.2,21.0,30.43,WNW,288,0.0,0.0,71,0.00,,,0.00,Wunderground v.1.15,2013-12-26 03:55:00,
2013-12-25 23:00:00,29.2,21.3,30.43,West,259,0.0,0.0,72,0.00,,,0.00,Wunderground v.1.15,2013-12-26 04:00:00,
2013-12-25 23:10:00,29.2,21.3,30.43,WNW,294,0.0,0.0,72,0.00,,,0.00,Wunderground v.1.15,2013-12-26 04:10:00,
2013-12-25 23:15:00,29.2,21.3,30.43,WNW,294,1.0,1.0,72,0.00,,,0.00,Wunderground v.1.15,2013-12-26 04:15:00,
2013-12-25 23:25:00,29.2,21.3,30.43,West,278,1.0,1.0,72,0.00,,,0.00,Wunderground v.1.15,2013-12-26 04:25:00,
2013-12-25 23:30:00,29.2,21.0,30.42,WNW,288,1.0,1.0,71,0.00,,,0.00,Wunderground v.1.15,2013-12-26 04:30:00,
2013-12-25 23:35:00,29.1,21.5,30.42,West,281,1.0,1.0,73,0.00,,,0.00,Wunderground v.1.15,2013-12-26 04:35:00,
2013-12-25 23:45:00,28.7,20.8,30.41,WSW,245,0.0,0.0,72,0.00,,,0.00,Wunderground v.1.15,2013-12-26 04:45:00,
2013-12-25 23:50:00,28.5,20.9,30.41,WSW,252,0.0,1.0,73,0.00,,,0.00,Wunderground v.1.15,2013-12-26 04:50:00,
2013-12-25 23:55:00,28.4,20.8,30.41,West,281,0.0,1.0,73,0.00,,,0.00,Wunderground v.1.15,2013-12-26 04:55:00,